createdAt,value
2022-08-20T00:02:10.227Z,77.85
2022-08-20T00:04:39.526Z,78.05
2022-08-20T00:07:07.145Z,78.00
2022-08-20T00:09:36.682Z,77.77
2022-08-20T00:12:05.909Z,77.41
2022-08-20T00:14:33.881Z,77.61
2022-08-20T00:17:01.514Z,77.73
2022-08-20T00:19:28.343Z,77.61
2022-08-20T00:21:58.010Z,76.76
2022-08-20T00:24:25.812Z,76.58
2022-08-20T00:26:52.929Z,75.65
2022-08-20T00:29:22.327Z,75.22
2022-08-20T00:31:50.566Z,75.39
2022-08-20T00:34:17.447Z,75.19
2022-08-20T00:36:44.473Z,75.05
2022-08-20T00:39:11.130Z,75.08
2022-08-20T00:41:37.840Z,75.17
2022-08-20T00:44:15.079Z,75.38
2022-08-20T00:46:43.543Z,75.32
2022-08-20T00:49:19.490Z,75.50
2022-08-20T00:51:51.508Z,75.61
2022-08-20T00:54:37.849Z,75.69
2022-08-20T00:57:08.667Z,75.52
2022-08-20T00:59:37.350Z,75.51
2022-08-20T01:02:07.835Z,75.44
2022-08-20T01:04:36.529Z,75.40
2022-08-20T01:07:05.430Z,74.75
2022-08-20T01:09:57.781Z,74.91
2022-08-20T01:12:23.273Z,74.82
2022-08-20T01:14:50.186Z,74.32
2022-08-20T01:17:20.904Z,74.18
2022-08-20T01:20:10.618Z,73.99
2022-08-20T01:23:01.632Z,73.35
2022-08-20T01:25:43.525Z,73.57
2022-08-20T01:28:12.703Z,72.17
2022-08-20T01:30:39.568Z,71.94
2022-08-20T01:33:06.500Z,70.46
2022-08-20T01:35:41.414Z,70.65
2022-08-20T01:38:08.962Z,70.43
2022-08-20T01:41:07.834Z,70.85
2022-08-20T01:43:37.148Z,70.89
2022-08-20T01:46:05.016Z,70.34
2022-08-20T01:48:31.748Z,70.59
2022-08-20T01:51:04.913Z,70.83
2022-08-20T01:53:38.919Z,70.89
2022-08-20T01:56:14.250Z,71.25
2022-08-20T01:58:45.664Z,71.96
2022-08-20T02:01:25.298Z,72.04
2022-08-20T02:03:52.398Z,71.86
2022-08-20T02:06:19.156Z,71.94
2022-08-20T02:08:45.944Z,71.85
2022-08-20T02:11:13.031Z,71.71
2022-08-20T02:13:40.887Z,71.25
2022-08-20T02:16:08.257Z,71.12
2022-08-20T02:18:35.154Z,71.47
2022-08-20T02:21:03.205Z,71.41
2022-08-20T02:23:29.983Z,71.72
2022-08-20T02:25:56.964Z,71.97
2022-08-20T02:28:23.729Z,71.72
2022-08-20T02:30:53.375Z,71.92
2022-08-20T02:33:24.088Z,71.75
2022-08-20T02:35:52.788Z,71.58
2022-08-20T02:38:19.646Z,71.59
2022-08-20T02:40:46.754Z,71.72
2022-08-20T02:43:14.524Z,71.98
2022-08-20T02:45:43.879Z,72.46
2022-08-20T02:48:21.307Z,72.67
2022-08-20T02:50:51.602Z,72.21
2022-08-20T02:53:19.021Z,72.51
2022-08-20T02:55:46.143Z,71.35
2022-08-20T02:58:13.188Z,71.59
2022-08-20T03:00:40.307Z,71.41
2022-08-20T03:03:10.477Z,71.91
2022-08-20T03:05:39.741Z,71.67
2022-08-20T03:08:08.445Z,72.04
2022-08-20T03:10:39.106Z,72.13
2022-08-20T03:13:07.432Z,71.92
2022-08-20T03:15:34.590Z,71.28
2022-08-20T03:18:01.459Z,71.02
2022-08-20T03:20:28.658Z,70.95
2022-08-20T03:22:55.505Z,71.00
2022-08-20T03:25:23.065Z,71.13
2022-08-20T03:27:54.859Z,71.19
2022-08-20T03:30:23.907Z,71.33
2022-08-20T03:32:50.949Z,71.59
2022-08-20T03:35:20.083Z,71.78
2022-08-20T03:37:48.441Z,72.02
2022-08-20T03:40:23.279Z,72.20
2022-08-20T03:42:52.548Z,72.04
2022-08-20T03:45:21.102Z,72.25
2022-08-20T03:47:48.941Z,72.11
2022-08-20T03:50:22.991Z,72.21
2022-08-20T03:52:51.745Z,72.71
2022-08-20T03:55:20.135Z,72.66
2022-08-20T03:57:50.158Z,73.07
2022-08-20T04:00:21.157Z,73.45
2022-08-20T04:02:47.945Z,73.91
2022-08-20T04:05:14.692Z,73.73
2022-08-20T04:07:41.592Z,73.23
2022-08-20T04:10:11.209Z,73.36
2022-08-20T04:12:49.748Z,72.10
2022-08-20T04:15:20.751Z,71.66
2022-08-20T04:17:53.609Z,72.06
2022-08-20T04:20:24.008Z,72.37
2022-08-20T04:22:59.039Z,72.33
2022-08-20T04:25:35.855Z,72.04
2022-08-20T04:28:05.726Z,71.54
2022-08-20T04:30:33.475Z,71.63
2022-08-20T04:33:00.856Z,71.10
2022-08-20T04:35:28.766Z,71.40
2022-08-20T04:38:07.924Z,71.23
2022-08-20T04:40:54.287Z,71.35
2022-08-20T04:43:23.265Z,71.41
2022-08-20T04:45:51.979Z,71.48
2022-08-20T04:48:21.320Z,71.17
2022-08-20T04:50:48.100Z,71.01
2022-08-20T04:53:23.947Z,70.86
2022-08-20T04:55:54.411Z,70.96
2022-08-20T04:58:30.878Z,70.51
2022-08-20T05:01:01.123Z,70.42
2022-08-20T05:03:28.224Z,70.37
2022-08-20T05:05:56.906Z,70.37
2022-08-20T05:08:25.532Z,70.66
2022-08-20T05:10:59.911Z,69.50
2022-08-20T05:13:41.390Z,69.26
2022-08-20T05:16:08.346Z,69.72
2022-08-20T05:18:35.425Z,69.47
2022-08-20T05:21:06.576Z,69.12
2022-08-20T05:23:41.439Z,68.71
2022-08-20T05:26:11.070Z,67.91
2022-08-20T05:28:52.763Z,68.00
2022-08-20T05:31:30.912Z,67.70
2022-08-20T05:34:11.113Z,66.20
2022-08-20T05:36:49.362Z,66.82
2022-08-20T05:39:20.785Z,67.10
2022-08-20T05:41:49.890Z,67.04
2022-08-20T05:44:17.751Z,66.90
2022-08-20T05:46:46.569Z,66.34
2022-08-20T05:49:16.969Z,65.19
2022-08-20T05:51:44.038Z,64.20
2022-08-20T05:54:11.387Z,62.59
2022-08-20T05:56:38.081Z,58.13
2022-08-20T05:59:06.308Z,51.21
2022-08-20T06:01:35.071Z,47.03
2022-08-20T06:04:20.981Z,43.58
2022-08-20T06:06:48.563Z,40.47
2022-08-20T06:09:28.131Z,42.22
2022-08-20T06:12:04.000Z,43.76
2022-08-20T06:14:31.575Z,44.44
2022-08-20T06:17:10.722Z,45.26
2022-08-20T06:19:44.316Z,47.30
2022-08-20T06:22:20.706Z,49.42
2022-08-20T06:24:51.399Z,50.17
2022-08-20T06:27:18.594Z,48.45
2022-08-20T06:29:45.838Z,46.74
2022-08-20T06:32:13.311Z,42.85
2022-08-20T06:34:50.310Z,42.06
2022-08-20T06:37:31.639Z,43.55
2022-08-20T06:40:09.282Z,40.73
2022-08-20T06:42:36.759Z,42.32
2022-08-20T06:45:07.409Z,44.57
2022-08-20T06:47:34.454Z,45.39
2022-08-20T06:50:01.524Z,44.16
2022-08-20T06:52:52.704Z,46.10
2022-08-20T06:55:16.995Z,46.50
2022-08-20T06:57:44.162Z,46.69
2022-08-20T07:00:16.178Z,45.67
2022-08-20T07:02:42.946Z,43.56
2022-08-20T07:05:10.593Z,45.69
2022-08-20T07:07:37.629Z,45.08
2022-08-20T07:10:09.170Z,45.86
2022-08-20T07:12:36.478Z,45.86
2022-08-20T07:15:08.065Z,46.54
2022-08-20T07:17:35.123Z,46.89
2022-08-20T07:20:15.602Z,46.33
2022-08-20T07:22:43.546Z,43.04
2022-08-20T07:25:14.323Z,40.21
2022-08-20T07:27:42.251Z,39.87
2022-08-20T07:30:31.636Z,38.81
2022-08-20T07:32:58.588Z,38.28
2022-08-20T07:35:27.310Z,37.48
2022-08-20T07:37:56.940Z,39.47
2022-08-20T07:40:27.599Z,39.82
2022-08-20T07:43:00.861Z,42.83
2022-08-20T07:45:27.807Z,42.11
2022-08-20T07:47:55.971Z,41.27
2022-08-20T07:50:25.555Z,40.18
2022-08-20T07:52:53.255Z,39.54
2022-08-20T07:55:21.243Z,39.01
2022-08-20T07:57:50.234Z,38.62
2022-08-20T08:00:20.529Z,38.21
2022-08-20T08:02:47.562Z,37.46
2022-08-20T08:05:14.710Z,36.77
2022-08-20T08:07:42.317Z,36.03
2022-08-20T08:10:13.607Z,38.00
2022-08-20T08:12:45.202Z,39.46
2022-08-20T08:15:15.579Z,38.98
2022-08-20T08:17:44.773Z,37.57
2022-08-20T08:20:12.350Z,37.94
2022-08-20T08:22:41.535Z,39.00
2022-08-20T08:25:10.690Z,41.27
2022-08-20T08:27:37.418Z,42.67
2022-08-20T08:30:05.405Z,42.90
2022-08-20T08:32:32.514Z,42.92
2022-08-20T08:35:04.805Z,42.61
2022-08-20T08:37:31.778Z,43.22
2022-08-20T08:39:58.715Z,43.46
2022-08-20T08:42:43.310Z,41.44
2022-08-20T08:45:12.570Z,41.79
2022-08-20T08:47:41.316Z,41.03
2022-08-20T08:50:15.635Z,41.64
2022-08-20T08:52:53.769Z,40.94
2022-08-20T08:55:22.208Z,41.82
2022-08-20T08:57:49.805Z,44.02
2022-08-20T09:00:23.962Z,44.43
2022-08-20T09:03:24.515Z,45.73
2022-08-20T09:05:54.460Z,44.81
2022-08-20T09:08:32.399Z,44.69
2022-08-20T09:11:07.616Z,46.05
2022-08-20T09:13:35.337Z,46.14
2022-08-20T09:16:02.157Z,46.19
2022-08-20T09:18:29.074Z,45.73
2022-08-20T09:20:56.621Z,46.39
2022-08-20T09:23:23.352Z,46.21
2022-08-20T09:25:50.363Z,45.78
2022-08-20T09:28:17.245Z,45.53
2022-08-20T09:30:44.317Z,46.24
2022-08-20T09:33:12.762Z,46.01
2022-08-20T09:35:40.370Z,46.16
2022-08-20T09:38:07.447Z,47.05
2022-08-20T09:40:34.847Z,45.90
2022-08-20T09:43:01.603Z,46.42
2022-08-20T09:45:28.394Z,46.14
2022-08-20T09:47:56.947Z,45.96
2022-08-20T09:50:30.286Z,46.44
2022-08-20T09:53:01.333Z,46.43
2022-08-20T09:55:36.238Z,45.82
2022-08-20T09:58:26.762Z,46.50
2022-08-20T10:00:53.985Z,45.95
2022-08-20T10:03:20.837Z,46.45
2022-08-20T10:05:47.517Z,46.65
2022-08-20T10:08:14.315Z,46.57
2022-08-20T10:10:41.053Z,45.91
2022-08-20T10:13:07.771Z,46.10
2022-08-20T10:15:35.457Z,45.29
2022-08-20T10:18:07.808Z,46.13
2022-08-20T10:20:35.813Z,45.13
2022-08-20T10:23:03.572Z,44.70
2022-08-20T10:25:30.620Z,45.31
2022-08-20T10:27:57.570Z,45.36
2022-08-20T10:30:24.907Z,45.49
2022-08-20T10:32:51.766Z,44.99
2022-08-20T10:35:18.580Z,44.94
2022-08-20T10:37:45.582Z,44.59
2022-08-20T10:40:15.535Z,44.44
2022-08-20T10:42:43.832Z,43.20
2022-08-20T10:45:16.011Z,44.38
2022-08-20T10:47:43.138Z,44.31
2022-08-20T10:50:14.107Z,44.54
2022-08-20T10:52:40.796Z,44.38
2022-08-20T10:55:08.313Z,45.04
2022-08-20T10:57:35.191Z,44.34
2022-08-20T11:00:02.247Z,45.19
2022-08-20T11:02:29.987Z,45.88
2022-08-20T11:04:56.814Z,45.53
2022-08-20T11:07:50.848Z,45.89
2022-08-20T11:10:21.463Z,45.33
2022-08-20T11:12:48.588Z,45.89
2022-08-20T11:15:15.824Z,45.15
2022-08-20T11:17:44.142Z,45.57
2022-08-20T11:20:13.445Z,45.62
2022-08-20T11:22:40.273Z,45.59
2022-08-20T11:25:07.631Z,45.08
2022-08-20T11:27:39.137Z,45.71
2022-08-20T11:30:08.656Z,45.87
2022-08-20T11:32:35.623Z,45.86
2022-08-20T11:35:18.741Z,46.01
2022-08-20T11:37:52.781Z,46.41
2022-08-20T11:40:20.328Z,46.13
2022-08-20T11:43:13.180Z,46.68
2022-08-20T11:45:37.853Z,47.16
2022-08-20T11:48:05.442Z,47.20
2022-08-20T11:50:32.351Z,46.76
2022-08-20T11:52:59.345Z,47.45
2022-08-20T11:55:29.941Z,47.66
2022-08-20T11:57:59.628Z,47.76
2022-08-20T12:00:33.167Z,48.40
2022-08-20T12:03:05.577Z,47.95
2022-08-20T12:05:35.694Z,48.05
2022-08-20T12:08:03.044Z,48.72
2022-08-20T12:10:31.129Z,48.72
2022-08-20T12:12:58.246Z,48.78
2022-08-20T12:15:26.902Z,49.11
2022-08-20T12:17:55.005Z,49.32
2022-08-20T12:20:22.630Z,49.61
2022-08-20T12:22:49.500Z,49.22
2022-08-20T12:25:16.586Z,49.51
2022-08-20T12:27:43.274Z,49.67
2022-08-20T12:30:14.463Z,49.40
2022-08-20T12:32:42.400Z,49.67
2022-08-20T12:35:10.630Z,49.73
2022-08-20T12:37:37.672Z,50.07
2022-08-20T12:40:08.341Z,50.04
2022-08-20T12:42:35.411Z,49.87
2022-08-20T12:45:02.534Z,50.07
2022-08-20T12:47:36.907Z,50.59
2022-08-20T12:50:10.843Z,50.71
2022-08-20T12:52:37.780Z,50.46
2022-08-20T12:55:05.358Z,50.62
2022-08-20T12:57:38.858Z,50.85
2022-08-20T13:00:10.526Z,50.59
2022-08-20T13:02:38.731Z,50.93
2022-08-20T13:05:06.125Z,50.65
2022-08-20T13:07:33.050Z,50.97
2022-08-20T13:10:00.644Z,51.17
2022-08-20T13:12:28.052Z,50.81
2022-08-20T13:14:54.816Z,50.64
2022-08-20T13:17:32.771Z,51.01
2022-08-20T13:20:09.851Z,50.99
2022-08-20T13:22:36.681Z,50.99
2022-08-20T13:25:05.198Z,50.88
2022-08-20T13:27:32.186Z,50.85
2022-08-20T13:29:59.307Z,50.26
2022-08-20T13:32:26.705Z,50.67
2022-08-20T13:34:53.538Z,50.32
2022-08-20T13:37:25.508Z,50.33
2022-08-20T13:39:53.492Z,49.95
2022-08-20T13:42:20.662Z,50.52
2022-08-20T13:44:48.447Z,50.41
2022-08-20T13:47:18.227Z,50.75
2022-08-20T13:49:46.017Z,50.72
2022-08-20T13:52:13.082Z,50.78
2022-08-20T13:54:44.007Z,50.90
2022-08-20T13:57:14.236Z,50.69
2022-08-20T13:59:43.076Z,50.80
2022-08-20T14:02:11.444Z,51.04
2022-08-20T14:04:38.870Z,51.62
2022-08-20T14:07:32.486Z,51.57
2022-08-20T14:10:03.910Z,51.40
2022-08-20T14:12:31.010Z,51.46
2022-08-20T14:14:57.933Z,51.40
2022-08-20T14:17:31.982Z,51.16
2022-08-20T14:20:02.013Z,51.40
2022-08-20T14:22:29.533Z,51.44
2022-08-20T14:24:56.778Z,51.54
2022-08-20T14:27:27.826Z,51.54
2022-08-20T14:29:58.330Z,51.77
2022-08-20T14:32:25.460Z,51.21
2022-08-20T14:34:52.526Z,51.29
2022-08-20T14:37:20.663Z,51.29
2022-08-20T14:39:50.729Z,51.99
2022-08-20T14:42:17.498Z,51.59
2022-08-20T14:44:44.685Z,51.98
2022-08-20T14:47:14.415Z,51.99
2022-08-20T14:49:41.333Z,51.98
2022-08-20T14:52:08.091Z,52.37
2022-08-20T14:54:35.812Z,52.75
2022-08-20T14:57:03.050Z,52.88
2022-08-20T14:59:29.944Z,53.07
2022-08-20T15:01:56.901Z,53.34
2022-08-20T15:04:23.792Z,53.34
2022-08-20T15:06:54.648Z,53.26
2022-08-20T15:09:21.566Z,53.63
2022-08-20T15:11:48.680Z,53.46
2022-08-20T15:14:18.379Z,53.58
2022-08-20T15:16:45.364Z,53.50
2022-08-20T15:19:12.090Z,53.85
2022-08-20T15:21:45.125Z,53.92
2022-08-20T15:24:18.818Z,53.69
2022-08-20T15:26:46.006Z,53.66
2022-08-20T15:29:12.896Z,53.99
2022-08-20T15:31:49.983Z,54.10
2022-08-20T15:34:17.731Z,54.10
2022-08-20T15:36:45.569Z,54.21
2022-08-20T15:39:12.332Z,54.34
2022-08-20T15:41:39.049Z,54.51
2022-08-20T15:44:06.144Z,54.29
2022-08-20T15:46:36.258Z,54.54
2022-08-20T15:49:11.421Z,54.39
2022-08-20T15:51:45.536Z,54.37
2022-08-20T15:54:23.127Z,54.17
2022-08-20T15:57:02.715Z,54.49
2022-08-20T15:59:57.326Z,54.80
2022-08-20T16:02:25.946Z,54.76
2022-08-20T16:05:01.772Z,55.04
2022-08-20T16:07:58.731Z,55.21
2022-08-20T16:10:34.526Z,55.42
2022-08-20T16:13:06.224Z,55.49
2022-08-20T16:15:39.301Z,55.79
2022-08-20T16:18:07.654Z,55.92
2022-08-20T16:20:49.926Z,55.74
2022-08-20T16:23:19.653Z,55.53
2022-08-20T16:25:58.067Z,55.62
2022-08-20T16:28:33.064Z,55.40
2022-08-20T16:31:10.305Z,55.38
2022-08-20T16:34:25.742Z,55.70
2022-08-20T16:37:15.400Z,56.31
2022-08-20T16:40:07.218Z,57.02
2022-08-20T16:42:39.111Z,57.59
2022-08-20T16:45:12.458Z,57.67
2022-08-20T16:47:41.214Z,57.49
2022-08-20T16:50:07.901Z,57.53
2022-08-20T16:52:34.639Z,57.64
2022-08-20T16:55:01.319Z,57.70
2022-08-20T16:57:30.003Z,57.68
2022-08-20T17:00:07.848Z,58.14
2022-08-20T17:02:34.560Z,58.07
2022-08-20T17:05:06.549Z,58.33
2022-08-20T17:07:53.340Z,58.51
2022-08-20T17:10:27.331Z,58.42
2022-08-20T17:13:13.659Z,58.13
2022-08-20T17:15:43.785Z,57.67
2022-08-20T17:18:21.892Z,57.01
2022-08-20T17:20:48.910Z,56.74
2022-08-20T17:23:18.226Z,55.56
2022-08-20T17:25:58.164Z,55.56
2022-08-20T17:28:25.268Z,54.91
2022-08-20T17:30:53.207Z,54.66
2022-08-20T17:33:37.312Z,54.04
2022-08-20T17:36:10.327Z,54.49
2022-08-20T17:38:41.136Z,54.82
2022-08-20T17:41:17.548Z,55.22
2022-08-20T17:43:45.131Z,55.05
2022-08-20T17:46:18.926Z,54.76
2022-08-20T17:48:48.230Z,54.88
2022-08-20T17:51:26.579Z,54.68
2022-08-20T17:54:00.276Z,54.87
2022-08-20T17:56:34.503Z,54.95
2022-08-20T17:59:11.319Z,54.73
2022-08-20T18:01:38.070Z,54.90
2022-08-20T18:04:04.969Z,54.70
2022-08-20T18:06:37.314Z,54.68
2022-08-20T18:09:22.245Z,54.85
2022-08-20T18:11:56.231Z,55.34
2022-08-20T18:14:38.226Z,54.92
2022-08-20T18:17:24.940Z,55.04
2022-08-20T18:20:13.455Z,55.24
2022-08-20T18:23:06.268Z,55.29
2022-08-20T18:25:47.368Z,55.53
2022-08-20T18:28:23.067Z,55.69
2022-08-20T18:30:58.803Z,55.92
2022-08-20T18:33:35.930Z,55.76
2022-08-20T18:36:07.958Z,55.77
2022-08-20T18:38:42.010Z,55.44
2022-08-20T18:41:36.741Z,55.95
2022-08-20T18:44:13.322Z,55.87
2022-08-20T18:46:58.787Z,55.87
2022-08-20T18:49:39.280Z,55.87
2022-08-20T18:52:13.455Z,56.15
2022-08-20T18:54:49.285Z,56.52
2022-08-20T18:57:30.541Z,56.44
2022-08-20T19:00:14.256Z,56.54
2022-08-20T19:02:56.460Z,56.68
2022-08-20T19:05:46.121Z,56.63
2022-08-20T19:08:20.278Z,56.11
2022-08-20T19:10:56.554Z,56.22
2022-08-20T19:13:35.217Z,56.49
2022-08-20T19:16:08.846Z,56.02
2022-08-20T19:18:53.914Z,56.53
2022-08-20T19:21:31.714Z,56.89
2022-08-20T19:24:04.373Z,56.79
2022-08-20T19:26:39.445Z,56.73
2022-08-20T19:29:13.148Z,56.77
2022-08-20T19:31:41.666Z,57.36
2022-08-20T19:34:19.583Z,57.48
2022-08-20T19:36:54.224Z,57.85
2022-08-20T19:39:25.866Z,58.09
2022-08-20T19:41:55.291Z,59.12
2022-08-20T19:44:33.272Z,60.53
2022-08-20T19:47:01.110Z,60.97
2022-08-20T19:49:27.703Z,62.55
2022-08-20T19:52:00.275Z,63.32
2022-08-20T19:54:29.235Z,63.73
2022-08-20T19:57:05.318Z,64.48
2022-08-20T19:59:32.687Z,65.51
2022-08-20T20:02:03.013Z,65.81
2022-08-20T20:04:41.163Z,66.71
2022-08-20T20:07:24.728Z,66.58
2022-08-20T20:09:55.271Z,67.33
2022-08-20T20:12:23.225Z,66.88
2022-08-20T20:14:52.897Z,67.60
2022-08-20T20:17:23.649Z,67.80
2022-08-20T20:19:56.725Z,67.33
2022-08-20T20:22:33.367Z,68.18
2022-08-20T20:25:17.592Z,68.99
2022-08-20T20:27:53.137Z,68.70
2022-08-20T20:30:29.503Z,68.05
2022-08-20T20:32:58.239Z,68.83
2022-08-20T20:35:34.837Z,68.69
2022-08-20T20:38:10.068Z,69.57
2022-08-20T20:40:49.791Z,69.40
2022-08-20T20:43:42.991Z,69.58
2022-08-20T20:46:23.397Z,69.67
2022-08-20T20:48:58.596Z,69.36
2022-08-20T20:51:51.813Z,69.03
2022-08-20T20:54:27.749Z,69.37
2022-08-20T20:57:04.287Z,68.60
2022-08-20T20:59:34.452Z,68.40
2022-08-20T21:02:01.875Z,68.84
2022-08-20T21:04:29.307Z,68.66
2022-08-20T21:06:58.326Z,68.82
2022-08-20T21:09:26.602Z,68.55
2022-08-20T21:11:53.285Z,68.39
2022-08-20T21:14:20.171Z,68.15
2022-08-20T21:16:46.940Z,67.47
2022-08-20T21:19:14.864Z,67.83
2022-08-20T21:21:42.172Z,67.18
2022-08-20T21:24:09.290Z,67.76
2022-08-20T21:26:37.519Z,67.32
2022-08-20T21:29:09.509Z,67.45
2022-08-20T21:31:43.576Z,66.99
2022-08-20T21:34:12.293Z,66.84
2022-08-20T21:36:39.239Z,66.96
2022-08-20T21:39:05.976Z,67.04
2022-08-20T21:41:33.354Z,66.09
2022-08-20T21:44:13.646Z,66.56
2022-08-20T21:46:40.504Z,66.30
2022-08-20T21:49:07.426Z,66.00
2022-08-20T21:51:35.776Z,66.07
2022-08-20T21:54:03.041Z,65.58
2022-08-20T21:56:30.199Z,65.46
2022-08-20T21:59:00.129Z,65.15
2022-08-20T22:01:27.411Z,65.58
2022-08-20T22:03:54.242Z,65.18
2022-08-20T22:06:20.930Z,64.81
2022-08-20T22:08:47.677Z,65.17
2022-08-20T22:11:14.528Z,64.56
2022-08-20T22:13:41.944Z,64.81
2022-08-20T22:16:11.254Z,65.07
2022-08-20T22:18:38.391Z,65.22
2022-08-20T22:21:11.048Z,65.91
2022-08-20T22:23:40.110Z,65.98
2022-08-20T22:26:08.061Z,66.24
2022-08-20T22:28:34.912Z,66.35
2022-08-20T22:31:02.336Z,66.89
2022-08-20T22:33:29.136Z,67.17
2022-08-20T22:35:57.543Z,67.25
2022-08-20T22:38:25.111Z,67.29
2022-08-20T22:40:53.993Z,67.25
2022-08-20T22:43:21.951Z,67.07
2022-08-20T22:45:52.645Z,67.67
2022-08-20T22:48:20.849Z,67.66
2022-08-20T22:50:49.844Z,67.57
2022-08-20T22:53:19.265Z,67.63
2022-08-20T22:55:45.996Z,67.63
2022-08-20T22:58:12.762Z,67.34
2022-08-20T23:00:39.957Z,67.52
2022-08-20T23:03:07.728Z,67.46
2022-08-20T23:05:37.284Z,67.20
2022-08-20T23:08:05.975Z,66.94
2022-08-20T23:10:33.810Z,66.60
2022-08-20T23:13:00.978Z,66.71
2022-08-20T23:15:28.517Z,66.96
2022-08-20T23:18:00.624Z,66.92
2022-08-20T23:20:27.261Z,66.87
2022-08-20T23:22:54.689Z,67.10
2022-08-20T23:25:21.677Z,66.80
2022-08-20T23:27:50.688Z,66.59
2022-08-20T23:30:19.962Z,66.12
2022-08-20T23:32:46.792Z,65.73
2022-08-20T23:35:14.357Z,66.46
2022-08-20T23:37:45.185Z,65.91
2022-08-20T23:40:13.240Z,65.67
2022-08-20T23:42:40.341Z,65.44
2022-08-20T23:45:07.869Z,65.24
2022-08-20T23:47:35.938Z,65.28
2022-08-20T23:50:04.155Z,64.93
2022-08-20T23:52:30.836Z,65.06
2022-08-20T23:54:57.521Z,65.18
2022-08-20T23:57:24.338Z,65.28
2022-08-20T23:59:52.974Z,65.70
